sensor_id;sensor_type;location;lat;lon;timestamp;temperature;humidity
4411;DHT22;2218;51.408;7.208;2023-04-24T00:01:10;19.30;42.30
4411;DHT22;2218;51.408;7.208;2023-04-24T00:03:39;19.30;42.30
4411;DHT22;2218;51.408;7.208;2023-04-24T00:06:06;19.30;42.30
4411;DHT22;2218;51.408;7.208;2023-04-24T00:08:34;19.30;42.30
4411;DHT22;2218;51.408;7.208;2023-04-24T00:11:01;19.30;42.30
4411;DHT22;2218;51.408;7.208;2023-04-24T00:13:30;19.30;42.30
4411;DHT22;2218;51.408;7.208;2023-04-24T00:15:57;19.30;42.20
4411;DHT22;2218;51.408;7.208;2023-04-24T00:18:23;19.30;42.20
4411;DHT22;2218;51.408;7.208;2023-04-24T00:20:50;19.30;42.10
4411;DHT22;2218;51.408;7.208;2023-04-24T00:23:17;19.30;42.10
4411;DHT22;2218;51.408;7.208;2023-04-24T00:25:44;19.30;42.20
4411;DHT22;2218;51.408;7.208;2023-04-24T00:28:11;19.30;42.10
4411;DHT22;2218;51.408;7.208;2023-04-24T00:30:39;19.30;42.10
4411;DHT22;2218;51.408;7.208;2023-04-24T00:33:06;19.30;42.00
4411;DHT22;2218;51.408;7.208;2023-04-24T00:35:33;19.30;42.00
4411;DHT22;2218;51.408;7.208;2023-04-24T00:38:00;19.30;42.00
4411;DHT22;2218;51.408;7.208;2023-04-24T00:40:28;19.30;42.00
4411;DHT22;2218;51.408;7.208;2023-04-24T00:42:55;19.30;41.90
4411;DHT22;2218;51.408;7.208;2023-04-24T00:45:23;19.30;41.90
4411;DHT22;2218;51.408;7.208;2023-04-24T00:47:52;19.30;41.90
4411;DHT22;2218;51.408;7.208;2023-04-24T00:50:21;19.30;41.90
4411;DHT22;2218;51.408;7.208;2023-04-24T00:52:48;19.30;41.90
4411;DHT22;2218;51.408;7.208;2023-04-24T00:55:16;19.30;41.80
4411;DHT22;2218;51.408;7.208;2023-04-24T00:57:43;19.30;41.80
4411;DHT22;2218;51.408;7.208;2023-04-24T01:00:12;19.30;41.80
4411;DHT22;2218;51.408;7.208;2023-04-24T01:02:43;19.30;41.70
4411;DHT22;2218;51.408;7.208;2023-04-24T01:05:13;19.30;41.70
4411;DHT22;2218;51.408;7.208;2023-04-24T01:07:41;19.20;41.60
4411;DHT22;2218;51.408;7.208;2023-04-24T01:10:11;19.30;41.70
4411;DHT22;2218;51.408;7.208;2023-04-24T01:12:40;19.20;41.60
4411;DHT22;2218;51.408;7.208;2023-04-24T01:15:08;19.30;41.60
4411;DHT22;2218;51.408;7.208;2023-04-24T01:17:36;19.30;41.60
4411;DHT22;2218;51.408;7.208;2023-04-24T01:20:04;19.20;41.50
4411;DHT22;2218;51.408;7.208;2023-04-24T01:22:34;19.20;41.50
4411;DHT22;2218;51.408;7.208;2023-04-24T01:25:01;19.20;41.40
4411;DHT22;2218;51.408;7.208;2023-04-24T01:27:30;19.20;41.40
4411;DHT22;2218;51.408;7.208;2023-04-24T01:29:57;19.20;41.40
4411;DHT22;2218;51.408;7.208;2023-04-24T01:32:25;19.20;41.30
4411;DHT22;2218;51.408;7.208;2023-04-24T01:34:52;19.20;41.30
4411;DHT22;2218;51.408;7.208;2023-04-24T01:37:20;19.20;41.20
4411;DHT22;2218;51.408;7.208;2023-04-24T01:39:50;19.20;41.20
4411;DHT22;2218;51.408;7.208;2023-04-24T01:42:17;19.20;41.10
4411;DHT22;2218;51.408;7.208;2023-04-24T01:44:46;19.20;41.10
4411;DHT22;2218;51.408;7.208;2023-04-24T01:47:13;19.20;41.10
4411;DHT22;2218;51.408;7.208;2023-04-24T01:49:41;19.20;41.10
4411;DHT22;2218;51.408;7.208;2023-04-24T01:52:08;19.20;41.10
4411;DHT22;2218;51.408;7.208;2023-04-24T01:54:35;19.20;41.00
4411;DHT22;2218;51.408;7.208;2023-04-24T01:57:03;19.20;41.00
4411;DHT22;2218;51.408;7.208;2023-04-24T01:59:33;19.20;41.00
4411;DHT22;2218;51.408;7.208;2023-04-24T02:02:01;19.20;40.90
4411;DHT22;2218;51.408;7.208;2023-04-24T02:04:29;19.20;40.90
4411;DHT22;2218;51.408;7.208;2023-04-24T02:06:56;19.20;40.80
4411;DHT22;2218;51.408;7.208;2023-04-24T02:09:24;19.20;40.80
4411;DHT22;2218;51.408;7.208;2023-04-24T02:11:51;19.20;40.80
4411;DHT22;2218;51.408;7.208;2023-04-24T02:14:19;19.20;40.80
4411;DHT22;2218;51.408;7.208;2023-04-24T02:16:46;19.20;40.80
4411;DHT22;2218;51.408;7.208;2023-04-24T02:19:13;19.20;40.70
4411;DHT22;2218;51.408;7.208;2023-04-24T02:21:40;19.20;40.80
4411;DHT22;2218;51.408;7.208;2023-04-24T02:24:08;19.20;40.70
4411;DHT22;2218;51.408;7.208;2023-04-24T02:26:35;19.20;40.70
4411;DHT22;2218;51.408;7.208;2023-04-24T02:29:01;19.10;40.60
4411;DHT22;2218;51.408;7.208;2023-04-24T02:31:30;19.10;40.60
4411;DHT22;2218;51.408;7.208;2023-04-24T02:33:57;19.20;40.70
4411;DHT22;2218;51.408;7.208;2023-04-24T02:36:23;19.10;40.60
4411;DHT22;2218;51.408;7.208;2023-04-24T02:38:50;19.10;40.60
4411;DHT22;2218;51.408;7.208;2023-04-24T02:41:18;19.10;40.60
4411;DHT22;2218;51.408;7.208;2023-04-24T02:43:45;19.10;40.60
4411;DHT22;2218;51.408;7.208;2023-04-24T02:46:12;19.10;40.60
4411;DHT22;2218;51.408;7.208;2023-04-24T02:48:40;19.10;40.50
4411;DHT22;2218;51.408;7.208;2023-04-24T02:51:07;19.10;40.50
4411;DHT22;2218;51.408;7.208;2023-04-24T02:53:34;19.10;40.50
4411;DHT22;2218;51.408;7.208;2023-04-24T02:56:01;19.10;40.50
4411;DHT22;2218;51.408;7.208;2023-04-24T02:58:28;19.10;40.50
4411;DHT22;2218;51.408;7.208;2023-04-24T03:00:55;19.10;40.50
4411;DHT22;2218;51.408;7.208;2023-04-24T03:03:22;19.10;40.50
4411;DHT22;2218;51.408;7.208;2023-04-24T03:05:52;19.10;40.50
4411;DHT22;2218;51.408;7.208;2023-04-24T03:08:19;19.10;40.50
4411;DHT22;2218;51.408;7.208;2023-04-24T03:10:46;19.10;40.50
4411;DHT22;2218;51.408;7.208;2023-04-24T03:13:15;19.10;40.50
4411;DHT22;2218;51.408;7.208;2023-04-24T03:15:42;19.10;40.50
4411;DHT22;2218;51.408;7.208;2023-04-24T03:18:10;19.10;40.50
4411;DHT22;2218;51.408;7.208;2023-04-24T03:20:37;19.10;40.40
4411;DHT22;2218;51.408;7.208;2023-04-24T03:23:05;19.10;40.50
4411;DHT22;2218;51.408;7.208;2023-04-24T03:25:33;19.10;40.40
4411;DHT22;2218;51.408;7.208;2023-04-24T03:28:00;19.10;40.40
4411;DHT22;2218;51.408;7.208;2023-04-24T03:30:34;19.10;40.50
4411;DHT22;2218;51.408;7.208;2023-04-24T03:33:02;19.10;40.40
4411;DHT22;2218;51.408;7.208;2023-04-24T03:35:32;19.10;40.40
4411;DHT22;2218;51.408;7.208;2023-04-24T03:38:03;19.10;40.40
4411;DHT22;2218;51.408;7.208;2023-04-24T03:40:51;19.10;40.40
4411;DHT22;2218;51.408;7.208;2023-04-24T03:43:40;19.10;40.40
4411;DHT22;2218;51.408;7.208;2023-04-24T03:46:07;19.10;40.40
4411;DHT22;2218;51.408;7.208;2023-04-24T03:48:40;19.10;40.40
4411;DHT22;2218;51.408;7.208;2023-04-24T03:51:08;19.10;40.40
4411;DHT22;2218;51.408;7.208;2023-04-24T03:53:38;19.10;40.90
4411;DHT22;2218;51.408;7.208;2023-04-24T03:56:06;19.10;40.40
4411;DHT22;2218;51.408;7.208;2023-04-24T03:58:34;19.10;40.40
4411;DHT22;2218;51.408;7.208;2023-04-24T04:01:01;19.10;40.40
4411;DHT22;2218;51.408;7.208;2023-04-24T04:03:45;19.10;40.40
4411;DHT22;2218;51.408;7.208;2023-04-24T04:06:15;19.10;40.40
4411;DHT22;2218;51.408;7.208;2023-04-24T04:08:43;19.10;40.30
4411;DHT22;2218;51.408;7.208;2023-04-24T04:11:12;19.10;40.40
4411;DHT22;2218;51.408;7.208;2023-04-24T04:13:39;19.10;40.30
4411;DHT22;2218;51.408;7.208;2023-04-24T04:16:06;19.10;40.30
4411;DHT22;2218;51.408;7.208;2023-04-24T04:18:35;19.10;40.20
4411;DHT22;2218;51.408;7.208;2023-04-24T04:21:05;19.10;40.20
4411;DHT22;2218;51.408;7.208;2023-04-24T04:23:32;19.10;40.20
4411;DHT22;2218;51.408;7.208;2023-04-24T04:26:26;19.20;40.30
4411;DHT22;2218;51.408;7.208;2023-04-24T04:29:04;19.20;40.20
4411;DHT22;2218;51.408;7.208;2023-04-24T04:31:33;19.20;40.20
4411;DHT22;2218;51.408;7.208;2023-04-24T04:34:05;19.20;40.10
4411;DHT22;2218;51.408;7.208;2023-04-24T04:36:33;19.20;40.10
4411;DHT22;2218;51.408;7.208;2023-04-24T04:39:09;19.20;40.10
4411;DHT22;2218;51.408;7.208;2023-04-24T04:41:45;19.20;40.10
4411;DHT22;2218;51.408;7.208;2023-04-24T04:44:14;19.20;40.00
4411;DHT22;2218;51.408;7.208;2023-04-24T04:46:42;19.20;40.00
4411;DHT22;2218;51.408;7.208;2023-04-24T04:49:20;19.20;40.00
4411;DHT22;2218;51.408;7.208;2023-04-24T04:51:47;19.20;40.00
4411;DHT22;2218;51.408;7.208;2023-04-24T04:54:14;19.30;40.00
4411;DHT22;2218;51.408;7.208;2023-04-24T04:56:42;19.20;39.90
4411;DHT22;2218;51.408;7.208;2023-04-24T04:59:10;19.30;40.00
4411;DHT22;2218;51.408;7.208;2023-04-24T05:01:38;19.20;39.90
4411;DHT22;2218;51.408;7.208;2023-04-24T05:04:07;19.20;39.90
4411;DHT22;2218;51.408;7.208;2023-04-24T05:06:34;19.30;39.90
4411;DHT22;2218;51.408;7.208;2023-04-24T05:09:01;19.30;39.90
4411;DHT22;2218;51.408;7.208;2023-04-24T05:11:35;19.30;39.80
4411;DHT22;2218;51.408;7.208;2023-04-24T05:14:02;19.30;39.90
4411;DHT22;2218;51.408;7.208;2023-04-24T05:16:37;19.30;39.90
4411;DHT22;2218;51.408;7.208;2023-04-24T05:19:06;19.30;39.90
4411;DHT22;2218;51.408;7.208;2023-04-24T05:21:37;19.20;39.80
4411;DHT22;2218;51.408;7.208;2023-04-24T05:24:07;19.30;39.80
4411;DHT22;2218;51.408;7.208;2023-04-24T05:27:01;19.30;39.80
4411;DHT22;2218;51.408;7.208;2023-04-24T05:29:35;19.30;39.70
4411;DHT22;2218;51.408;7.208;2023-04-24T05:32:06;19.30;39.70
4411;DHT22;2218;51.408;7.208;2023-04-24T05:34:33;19.30;39.80
4411;DHT22;2218;51.408;7.208;2023-04-24T05:37:00;19.30;39.80
4411;DHT22;2218;51.408;7.208;2023-04-24T05:39:28;19.30;39.80
4411;DHT22;2218;51.408;7.208;2023-04-24T05:41:55;19.30;39.80
4411;DHT22;2218;51.408;7.208;2023-04-24T05:44:23;19.30;39.90
4411;DHT22;2218;51.408;7.208;2023-04-24T05:46:51;19.30;39.90
4411;DHT22;2218;51.408;7.208;2023-04-24T05:49:19;19.30;39.90
4411;DHT22;2218;51.408;7.208;2023-04-24T05:51:46;19.30;39.80
4411;DHT22;2218;51.408;7.208;2023-04-24T05:54:15;19.30;39.80
4411;DHT22;2218;51.408;7.208;2023-04-24T05:56:42;19.20;39.70
4411;DHT22;2218;51.408;7.208;2023-04-24T05:59:12;19.30;39.80
4411;DHT22;2218;51.408;7.208;2023-04-24T06:01:39;19.30;39.80
4411;DHT22;2218;51.408;7.208;2023-04-24T06:04:14;19.30;39.80
4411;DHT22;2218;51.408;7.208;2023-04-24T06:06:42;19.30;39.90
4411;DHT22;2218;51.408;7.208;2023-04-24T06:09:09;19.30;39.90
4411;DHT22;2218;51.408;7.208;2023-04-24T06:11:38;19.30;39.90
4411;DHT22;2218;51.408;7.208;2023-04-24T06:14:06;19.30;39.90
4411;DHT22;2218;51.408;7.208;2023-04-24T06:16:36;19.30;39.90
4411;DHT22;2218;51.408;7.208;2023-04-24T06:19:11;19.30;39.90
4411;DHT22;2218;51.408;7.208;2023-04-24T06:21:38;19.30;40.00
4411;DHT22;2218;51.408;7.208;2023-04-24T06:24:06;19.30;40.00
4411;DHT22;2218;51.408;7.208;2023-04-24T06:26:33;19.30;40.10
4411;DHT22;2218;51.408;7.208;2023-04-24T06:29:00;19.40;39.90
4411;DHT22;2218;51.408;7.208;2023-04-24T06:31:27;19.40;39.70
4411;DHT22;2218;51.408;7.208;2023-04-24T06:33:54;19.50;40.20
4411;DHT22;2218;51.408;7.208;2023-04-24T06:36:21;19.50;39.70
4411;DHT22;2218;51.408;7.208;2023-04-24T06:38:48;19.50;39.50
4411;DHT22;2218;51.408;7.208;2023-04-24T06:41:17;19.60;39.50
4411;DHT22;2218;51.408;7.208;2023-04-24T06:43:44;19.60;39.40
4411;DHT22;2218;51.408;7.208;2023-04-24T06:46:11;19.70;39.40
4411;DHT22;2218;51.408;7.208;2023-04-24T06:48:38;19.70;39.40
4411;DHT22;2218;51.408;7.208;2023-04-24T06:51:05;19.70;39.40
4411;DHT22;2218;51.408;7.208;2023-04-24T06:53:32;19.80;39.40
4411;DHT22;2218;51.408;7.208;2023-04-24T06:55:59;19.80;39.40
4411;DHT22;2218;51.408;7.208;2023-04-24T06:58:28;19.80;39.30
4411;DHT22;2218;51.408;7.208;2023-04-24T07:00:56;19.80;39.20
4411;DHT22;2218;51.408;7.208;2023-04-24T07:03:23;19.90;39.20
4411;DHT22;2218;51.408;7.208;2023-04-24T07:05:51;19.90;39.20
4411;DHT22;2218;51.408;7.208;2023-04-24T07:08:18;19.90;39.20
4411;DHT22;2218;51.408;7.208;2023-04-24T07:10:46;19.90;39.30
4411;DHT22;2218;51.408;7.208;2023-04-24T07:13:13;19.90;39.30
4411;DHT22;2218;51.408;7.208;2023-04-24T07:15:42;19.90;39.40
4411;DHT22;2218;51.408;7.208;2023-04-24T07:18:09;19.90;39.40
4411;DHT22;2218;51.408;7.208;2023-04-24T07:20:36;19.90;39.40
4411;DHT22;2218;51.408;7.208;2023-04-24T07:23:03;19.90;39.50
4411;DHT22;2218;51.408;7.208;2023-04-24T07:25:30;19.90;39.40
4411;DHT22;2218;51.408;7.208;2023-04-24T07:27:57;19.90;39.50
4411;DHT22;2218;51.408;7.208;2023-04-24T07:30:25;19.90;39.50
4411;DHT22;2218;51.408;7.208;2023-04-24T07:32:55;19.90;39.50
4411;DHT22;2218;51.408;7.208;2023-04-24T07:35:22;19.90;39.50
4411;DHT22;2218;51.408;7.208;2023-04-24T07:37:50;19.90;39.60
4411;DHT22;2218;51.408;7.208;2023-04-24T07:40:18;19.90;39.60
4411;DHT22;2218;51.408;7.208;2023-04-24T07:42:46;19.90;39.70
4411;DHT22;2218;51.408;7.208;2023-04-24T07:45:14;19.90;39.70
4411;DHT22;2218;51.408;7.208;2023-04-24T07:47:42;19.90;39.80
4411;DHT22;2218;51.408;7.208;2023-04-24T07:50:12;19.90;39.70
4411;DHT22;2218;51.408;7.208;2023-04-24T07:52:39;19.90;39.70
4411;DHT22;2218;51.408;7.208;2023-04-24T07:55:07;19.90;39.70
4411;DHT22;2218;51.408;7.208;2023-04-24T07:57:34;19.90;39.70
4411;DHT22;2218;51.408;7.208;2023-04-24T08:00:02;19.90;39.70
4411;DHT22;2218;51.408;7.208;2023-04-24T08:02:37;19.90;39.80
4411;DHT22;2218;51.408;7.208;2023-04-24T08:05:04;19.90;39.80
4411;DHT22;2218;51.408;7.208;2023-04-24T08:07:33;19.90;39.80
4411;DHT22;2218;51.408;7.208;2023-04-24T08:10:01;20.00;39.90
4411;DHT22;2218;51.408;7.208;2023-04-24T08:12:29;20.00;40.00
4411;DHT22;2218;51.408;7.208;2023-04-24T08:14:56;20.00;40.00
4411;DHT22;2218;51.408;7.208;2023-04-24T08:17:23;20.00;40.00
4411;DHT22;2218;51.408;7.208;2023-04-24T08:19:50;20.00;40.00
4411;DHT22;2218;51.408;7.208;2023-04-24T08:22:19;20.00;40.00
4411;DHT22;2218;51.408;7.208;2023-04-24T08:24:47;20.00;40.00
4411;DHT22;2218;51.408;7.208;2023-04-24T08:27:14;20.00;40.00
4411;DHT22;2218;51.408;7.208;2023-04-24T08:29:41;20.00;40.00
4411;DHT22;2218;51.408;7.208;2023-04-24T08:32:08;20.00;40.10
4411;DHT22;2218;51.408;7.208;2023-04-24T08:34:35;20.00;40.00
4411;DHT22;2218;51.408;7.208;2023-04-24T08:37:02;20.00;40.10
4411;DHT22;2218;51.408;7.208;2023-04-24T08:39:29;20.00;40.20
4411;DHT22;2218;51.408;7.208;2023-04-24T08:41:57;20.00;40.20
4411;DHT22;2218;51.408;7.208;2023-04-24T08:44:32;20.00;40.20
4411;DHT22;2218;51.408;7.208;2023-04-24T08:46:59;20.00;40.20
4411;DHT22;2218;51.408;7.208;2023-04-24T08:49:28;20.00;40.20
4411;DHT22;2218;51.408;7.208;2023-04-24T08:51:55;20.00;40.30
4411;DHT22;2218;51.408;7.208;2023-04-24T08:54:25;20.10;40.40
4411;DHT22;2218;51.408;7.208;2023-04-24T08:56:54;20.00;40.30
4411;DHT22;2218;51.408;7.208;2023-04-24T08:59:27;20.10;41.00
4411;DHT22;2218;51.408;7.208;2023-04-24T09:01:56;20.10;40.40
4411;DHT22;2218;51.408;7.208;2023-04-24T09:04:24;20.10;40.50
4411;DHT22;2218;51.408;7.208;2023-04-24T09:06:55;20.10;40.50
4411;DHT22;2218;51.408;7.208;2023-04-24T09:09:23;20.10;40.50
4411;DHT22;2218;51.408;7.208;2023-04-24T09:11:52;20.10;40.50
4411;DHT22;2218;51.408;7.208;2023-04-24T09:14:23;20.10;40.50
4411;DHT22;2218;51.408;7.208;2023-04-24T09:16:50;20.10;40.50
4411;DHT22;2218;51.408;7.208;2023-04-24T09:19:17;20.10;40.60
4411;DHT22;2218;51.408;7.208;2023-04-24T09:21:46;20.10;40.60
4411;DHT22;2218;51.408;7.208;2023-04-24T09:24:16;20.10;40.70
4411;DHT22;2218;51.408;7.208;2023-04-24T09:26:45;20.10;40.70
4411;DHT22;2218;51.408;7.208;2023-04-24T09:29:16;20.20;40.70
4411;DHT22;2218;51.408;7.208;2023-04-24T09:31:46;20.20;40.70
4411;DHT22;2218;51.408;7.208;2023-04-24T09:34:13;20.20;40.50
4411;DHT22;2218;51.408;7.208;2023-04-24T09:36:41;20.30;40.30
4411;DHT22;2218;51.408;7.208;2023-04-24T09:39:10;20.30;40.10
4411;DHT22;2218;51.408;7.208;2023-04-24T09:41:44;20.30;40.20
4411;DHT22;2218;51.408;7.208;2023-04-24T09:44:13;20.30;40.20
4411;DHT22;2218;51.408;7.208;2023-04-24T09:46:43;20.30;40.10
4411;DHT22;2218;51.408;7.208;2023-04-24T09:49:14;20.30;40.10
4411;DHT22;2218;51.408;7.208;2023-04-24T09:51:43;20.30;40.20
4411;DHT22;2218;51.408;7.208;2023-04-24T09:54:14;20.30;40.20
4411;DHT22;2218;51.408;7.208;2023-04-24T09:56:43;20.30;40.20
4411;DHT22;2218;51.408;7.208;2023-04-24T09:59:12;20.30;40.20
4411;DHT22;2218;51.408;7.208;2023-04-24T10:01:40;20.30;40.20
4411;DHT22;2218;51.408;7.208;2023-04-24T10:04:18;20.30;40.40
4411;DHT22;2218;51.408;7.208;2023-04-24T10:06:47;20.30;40.30
4411;DHT22;2218;51.408;7.208;2023-04-24T10:09:15;20.30;40.20
4411;DHT22;2218;51.408;7.208;2023-04-24T10:11:46;20.30;40.10
4411;DHT22;2218;51.408;7.208;2023-04-24T10:14:16;20.30;40.10
4411;DHT22;2218;51.408;7.208;2023-04-24T10:16:44;20.30;39.90
4411;DHT22;2218;51.408;7.208;2023-04-24T10:19:13;20.30;39.80
4411;DHT22;2218;51.408;7.208;2023-04-24T10:21:43;20.30;39.80
4411;DHT22;2218;51.408;7.208;2023-04-24T10:24:12;20.30;39.80
4411;DHT22;2218;51.408;7.208;2023-04-24T10:26:41;20.30;39.90
4411;DHT22;2218;51.408;7.208;2023-04-24T10:29:08;20.30;39.90
4411;DHT22;2218;51.408;7.208;2023-04-24T10:31:38;20.30;40.00
4411;DHT22;2218;51.408;7.208;2023-04-24T10:34:06;20.30;39.90
4411;DHT22;2218;51.408;7.208;2023-04-24T10:36:34;20.40;39.70
4411;DHT22;2218;51.408;7.208;2023-04-24T10:39:07;20.40;39.60
4411;DHT22;2218;51.408;7.208;2023-04-24T10:41:37;20.40;39.50
4411;DHT22;2218;51.408;7.208;2023-04-24T10:44:06;20.40;39.40
4411;DHT22;2218;51.408;7.208;2023-04-24T10:46:34;20.40;39.30
4411;DHT22;2218;51.408;7.208;2023-04-24T10:49:04;20.40;39.20
4411;DHT22;2218;51.408;7.208;2023-04-24T10:51:46;20.50;39.30
4411;DHT22;2218;51.408;7.208;2023-04-24T10:54:27;20.50;39.20
4411;DHT22;2218;51.408;7.208;2023-04-24T10:57:25;20.50;39.20
4411;DHT22;2218;51.408;7.208;2023-04-24T11:00:14;20.50;39.20
4411;DHT22;2218;51.408;7.208;2023-04-24T11:02:47;20.50;39.20
4411;DHT22;2218;51.408;7.208;2023-04-24T11:05:16;20.50;39.10
4411;DHT22;2218;51.408;7.208;2023-04-24T11:08:12;20.50;39.10
4411;DHT22;2218;51.408;7.208;2023-04-24T11:10:45;20.50;39.10
4411;DHT22;2218;51.408;7.208;2023-04-24T11:13:15;20.50;38.90
4411;DHT22;2218;51.408;7.208;2023-04-24T11:15:42;20.50;38.90
4411;DHT22;2218;51.408;7.208;2023-04-24T11:18:13;20.60;39.00
4411;DHT22;2218;51.408;7.208;2023-04-24T11:20:42;20.60;38.90
4411;DHT22;2218;51.408;7.208;2023-04-24T11:23:12;20.60;39.00
4411;DHT22;2218;51.408;7.208;2023-04-24T11:25:41;20.60;39.00
4411;DHT22;2218;51.408;7.208;2023-04-24T11:28:14;20.60;39.00
4411;DHT22;2218;51.408;7.208;2023-04-24T11:30:42;20.60;39.20
4411;DHT22;2218;51.408;7.208;2023-04-24T11:33:09;20.70;39.30
4411;DHT22;2218;51.408;7.208;2023-04-24T11:35:39;20.70;39.30
4411;DHT22;2218;51.408;7.208;2023-04-24T11:38:07;20.70;39.30
4411;DHT22;2218;51.408;7.208;2023-04-24T11:40:34;20.70;39.30
4411;DHT22;2218;51.408;7.208;2023-04-24T11:43:04;20.70;39.30
4411;DHT22;2218;51.408;7.208;2023-04-24T11:45:33;20.70;39.30
4411;DHT22;2218;51.408;7.208;2023-04-24T11:48:00;20.70;39.30
4411;DHT22;2218;51.408;7.208;2023-04-24T11:50:29;20.70;39.20
4411;DHT22;2218;51.408;7.208;2023-04-24T11:52:56;20.70;39.20
4411;DHT22;2218;51.408;7.208;2023-04-24T11:55:26;20.60;39.20
4411;DHT22;2218;51.408;7.208;2023-04-24T11:57:55;20.60;39.30
4411;DHT22;2218;51.408;7.208;2023-04-24T12:00:26;20.50;39.30
4411;DHT22;2218;51.408;7.208;2023-04-24T12:03:05;20.50;39.40
4411;DHT22;2218;51.408;7.208;2023-04-24T12:05:33;20.50;39.50
4411;DHT22;2218;51.408;7.208;2023-04-24T12:08:01;20.40;39.50
4411;DHT22;2218;51.408;7.208;2023-04-24T12:10:30;20.40;39.50
4411;DHT22;2218;51.408;7.208;2023-04-24T12:12:58;20.40;39.60
4411;DHT22;2218;51.408;7.208;2023-04-24T12:15:27;20.40;39.70
4411;DHT22;2218;51.408;7.208;2023-04-24T12:17:55;20.30;39.60
4411;DHT22;2218;51.408;7.208;2023-04-24T12:20:28;20.30;40.10
4411;DHT22;2218;51.408;7.208;2023-04-24T12:22:57;20.30;39.70
4411;DHT22;2218;51.408;7.208;2023-04-24T12:25:26;20.30;39.70
4411;DHT22;2218;51.408;7.208;2023-04-24T12:27:55;20.30;39.70
4411;DHT22;2218;51.408;7.208;2023-04-24T12:30:40;20.30;39.70
4411;DHT22;2218;51.408;7.208;2023-04-24T12:33:10;20.30;39.80
4411;DHT22;2218;51.408;7.208;2023-04-24T12:35:40;20.30;39.80
4411;DHT22;2218;51.408;7.208;2023-04-24T12:38:10;20.30;39.80
4411;DHT22;2218;51.408;7.208;2023-04-24T12:40:39;20.30;39.80
4411;DHT22;2218;51.408;7.208;2023-04-24T12:43:13;20.30;39.90
4411;DHT22;2218;51.408;7.208;2023-04-24T12:45:41;20.30;39.90
4411;DHT22;2218;51.408;7.208;2023-04-24T12:48:08;20.30;40.00
4411;DHT22;2218;51.408;7.208;2023-04-24T12:50:35;20.30;40.00
4411;DHT22;2218;51.408;7.208;2023-04-24T12:53:04;20.30;40.00
4411;DHT22;2218;51.408;7.208;2023-04-24T12:55:32;20.20;40.00
4411;DHT22;2218;51.408;7.208;2023-04-24T12:57:59;20.20;40.20
4411;DHT22;2218;51.408;7.208;2023-04-24T13:00:27;20.30;40.20
4411;DHT22;2218;51.408;7.208;2023-04-24T13:02:54;20.30;40.10
4411;DHT22;2218;51.408;7.208;2023-04-24T13:05:21;20.30;39.90
4411;DHT22;2218;51.408;7.208;2023-04-24T13:07:49;20.30;39.80
4411;DHT22;2218;51.408;7.208;2023-04-24T13:10:16;20.30;39.60
4411;DHT22;2218;51.408;7.208;2023-04-24T13:12:44;20.30;39.50
4411;DHT22;2218;51.408;7.208;2023-04-24T13:15:12;20.30;39.40
4411;DHT22;2218;51.408;7.208;2023-04-24T13:17:39;20.30;39.30
4411;DHT22;2218;51.408;7.208;2023-04-24T13:20:07;20.30;39.20
4411;DHT22;2218;51.408;7.208;2023-04-24T13:22:34;20.30;39.10
4411;DHT22;2218;51.408;7.208;2023-04-24T13:25:04;20.30;39.00
4411;DHT22;2218;51.408;7.208;2023-04-24T13:27:32;20.30;38.80
4411;DHT22;2218;51.408;7.208;2023-04-24T13:29:59;20.30;38.70
4411;DHT22;2218;51.408;7.208;2023-04-24T13:32:26;20.30;38.60
4411;DHT22;2218;51.408;7.208;2023-04-24T13:34:54;20.30;38.50
4411;DHT22;2218;51.408;7.208;2023-04-24T13:37:21;20.30;38.60
4411;DHT22;2218;51.408;7.208;2023-04-24T13:39:48;20.30;38.40
4411;DHT22;2218;51.408;7.208;2023-04-24T13:42:16;20.30;38.30
4411;DHT22;2218;51.408;7.208;2023-04-24T13:44:44;20.30;38.10
4411;DHT22;2218;51.408;7.208;2023-04-24T13:47:11;20.40;38.00
4411;DHT22;2218;51.408;7.208;2023-04-24T13:49:38;20.40;37.90
4411;DHT22;2218;51.408;7.208;2023-04-24T13:52:05;20.30;37.80
4411;DHT22;2218;51.408;7.208;2023-04-24T13:54:32;20.30;37.90
4411;DHT22;2218;51.408;7.208;2023-04-24T13:56:59;20.30;37.90
4411;DHT22;2218;51.408;7.208;2023-04-24T13:59:29;20.30;37.90
4411;DHT22;2218;51.408;7.208;2023-04-24T14:01:56;20.30;38.00
4411;DHT22;2218;51.408;7.208;2023-04-24T14:04:23;20.30;38.10
4411;DHT22;2218;51.408;7.208;2023-04-24T14:06:51;20.30;38.10
4411;DHT22;2218;51.408;7.208;2023-04-24T14:09:17;20.30;38.10
4411;DHT22;2218;51.408;7.208;2023-04-24T14:11:44;20.30;38.10
4411;DHT22;2218;51.408;7.208;2023-04-24T14:14:11;20.30;38.20
4411;DHT22;2218;51.408;7.208;2023-04-24T14:16:39;20.30;38.70
4411;DHT22;2218;51.408;7.208;2023-04-24T14:19:06;20.30;38.20
4411;DHT22;2218;51.408;7.208;2023-04-24T14:21:33;20.30;38.20
4411;DHT22;2218;51.408;7.208;2023-04-24T14:24:00;20.30;38.20
4411;DHT22;2218;51.408;7.208;2023-04-24T14:26:27;20.30;38.20
4411;DHT22;2218;51.408;7.208;2023-04-24T14:28:54;20.30;38.30
4411;DHT22;2218;51.408;7.208;2023-04-24T14:31:24;20.30;38.40
4411;DHT22;2218;51.408;7.208;2023-04-24T14:33:52;20.30;38.40
4411;DHT22;2218;51.408;7.208;2023-04-24T14:36:19;20.30;38.20
4411;DHT22;2218;51.408;7.208;2023-04-24T14:38:46;20.30;37.80
4411;DHT22;2218;51.408;7.208;2023-04-24T14:41:13;20.30;37.50
4411;DHT22;2218;51.408;7.208;2023-04-24T14:43:40;20.30;37.50
4411;DHT22;2218;51.408;7.208;2023-04-24T14:46:07;20.30;37.50
4411;DHT22;2218;51.408;7.208;2023-04-24T14:48:34;20.30;37.40
4411;DHT22;2218;51.408;7.208;2023-04-24T14:51:02;20.30;37.50
4411;DHT22;2218;51.408;7.208;2023-04-24T14:53:29;20.30;37.60
4411;DHT22;2218;51.408;7.208;2023-04-24T14:55:56;20.30;37.50
4411;DHT22;2218;51.408;7.208;2023-04-24T14:58:23;20.30;37.40
4411;DHT22;2218;51.408;7.208;2023-04-24T15:00:50;20.30;37.50
4411;DHT22;2218;51.408;7.208;2023-04-24T15:03:20;20.30;37.60
4411;DHT22;2218;51.408;7.208;2023-04-24T15:05:47;20.20;37.50
4411;DHT22;2218;51.408;7.208;2023-04-24T15:08:15;20.20;37.60
4411;DHT22;2218;51.408;7.208;2023-04-24T15:10:42;20.20;37.60
4411;DHT22;2218;51.408;7.208;2023-04-24T15:13:09;20.20;37.60
4411;DHT22;2218;51.408;7.208;2023-04-24T15:15:36;20.20;37.70
4411;DHT22;2218;51.408;7.208;2023-04-24T15:18:04;20.20;37.70
4411;DHT22;2218;51.408;7.208;2023-04-24T15:20:31;20.20;37.80
4411;DHT22;2218;51.408;7.208;2023-04-24T15:22:58;20.10;37.70
4411;DHT22;2218;51.408;7.208;2023-04-24T15:25:27;20.10;37.80
4411;DHT22;2218;51.408;7.208;2023-04-24T15:27:54;20.10;37.70
4411;DHT22;2218;51.408;7.208;2023-04-24T15:30:21;20.10;37.70
4411;DHT22;2218;51.408;7.208;2023-04-24T15:32:48;20.10;37.80
4411;DHT22;2218;51.408;7.208;2023-04-24T15:35:15;20.10;37.80
4411;DHT22;2218;51.408;7.208;2023-04-24T15:37:43;20.10;37.80
4411;DHT22;2218;51.408;7.208;2023-04-24T15:40:10;20.10;37.80
4411;DHT22;2218;51.408;7.208;2023-04-24T15:42:40;20.10;37.80
4411;DHT22;2218;51.408;7.208;2023-04-24T15:45:09;20.10;37.90
4411;DHT22;2218;51.408;7.208;2023-04-24T15:47:37;20.10;37.90
4411;DHT22;2218;51.408;7.208;2023-04-24T15:50:05;20.10;38.00
4411;DHT22;2218;51.408;7.208;2023-04-24T15:52:35;20.10;38.00
4411;DHT22;2218;51.408;7.208;2023-04-24T15:55:03;20.10;38.00
4411;DHT22;2218;51.408;7.208;2023-04-24T15:57:31;20.10;38.00
4411;DHT22;2218;51.408;7.208;2023-04-24T15:59:59;20.10;38.00
4411;DHT22;2218;51.408;7.208;2023-04-24T16:02:26;20.10;38.00
4411;DHT22;2218;51.408;7.208;2023-04-24T16:04:53;20.10;38.00
4411;DHT22;2218;51.408;7.208;2023-04-24T16:07:20;20.10;38.10
4411;DHT22;2218;51.408;7.208;2023-04-24T16:09:47;20.10;38.00
4411;DHT22;2218;51.408;7.208;2023-04-24T16:12:14;20.10;38.00